sensor_id;sensor_type;location;lat;lon;timestamp;pressure;altitude;pressure_sealevel;temperature;humidity
76201;BME280;64981;52.930;9.266;2023-04-06T00:01:27;101703.91;;;2.39;58.33
76201;BME280;64981;52.930;9.266;2023-04-06T00:03:52;101693.41;;;2.41;58.41
76201;BME280;64981;52.930;9.266;2023-04-06T00:06:18;101689.22;;;2.22;58.78
76201;BME280;64981;52.930;9.266;2023-04-06T00:08:44;101698.03;;;2.04;59.54
76201;BME280;64981;52.930;9.266;2023-04-06T00:11:10;101688.44;;;1.89;59.36
76201;BME280;64981;52.930;9.266;2023-04-06T00:13:35;101696.53;;;2.00;59.08
76201;BME280;64981;52.930;9.266;2023-04-06T00:16:01;101685.34;;;1.98;59.00
76201;BME280;64981;52.930;9.266;2023-04-06T00:18:27;101697.63;;;2.12;59.10
76201;BME280;64981;52.930;9.266;2023-04-06T00:20:52;101694.59;;;2.19;58.66
76201;BME280;64981;52.930;9.266;2023-04-06T00:23:18;101699.19;;;2.30;58.12
76201;BME280;64981;52.930;9.266;2023-04-06T00:25:44;101697.63;;;2.12;59.31
76201;BME280;64981;52.930;9.266;2023-04-06T00:28:09;101698.63;;;2.09;59.57
76201;BME280;64981;52.930;9.266;2023-04-06T00:30:35;101677.97;;;1.75;60.99
76201;BME280;64981;52.930;9.266;2023-04-06T00:33:00;101693.81;;;1.86;60.62
76201;BME280;64981;52.930;9.266;2023-04-06T00:35:26;101684.84;;;1.92;60.15
76201;BME280;64981;52.930;9.266;2023-04-06T00:37:52;101686.34;;;1.64;60.33
76201;BME280;64981;52.930;9.266;2023-04-06T00:40:17;101687.59;;;1.89;60.12
76201;BME280;64981;52.930;9.266;2023-04-06T00:42:43;101671.72;;;1.78;60.03
76201;BME280;64981;52.930;9.266;2023-04-06T00:45:10;101683.06;;;1.92;59.53
76201;BME280;64981;52.930;9.266;2023-04-06T00:47:35;101676.78;;;1.81;58.61
76201;BME280;64981;52.930;9.266;2023-04-06T00:50:01;101682.47;;;1.56;58.96
76201;BME280;64981;52.930;9.266;2023-04-06T00:52:27;101675.41;;;1.73;58.69
76201;BME280;64981;52.930;9.266;2023-04-06T00:54:53;101675.75;;;1.67;59.51
76201;BME280;64981;52.930;9.266;2023-04-06T00:57:19;101680.94;;;1.52;59.52
76201;BME280;64981;52.930;9.266;2023-04-06T00:59:45;101663.72;;;1.49;59.62
76201;BME280;64981;52.930;9.266;2023-04-06T01:02:11;101664.66;;;1.64;59.27
76201;BME280;64981;52.930;9.266;2023-04-06T01:04:37;101673.28;;;1.49;59.80
76201;BME280;64981;52.930;9.266;2023-04-06T01:07:03;101656.56;;;1.37;59.97
76201;BME280;64981;52.930;9.266;2023-04-06T01:09:28;101662.06;;;1.80;58.54
76201;BME280;64981;52.930;9.266;2023-04-06T01:11:56;101658.31;;;1.69;59.37
76201;BME280;64981;52.930;9.266;2023-04-06T01:14:23;101654.50;;;1.75;58.79
76201;BME280;64981;52.930;9.266;2023-04-06T01:16:49;101654.34;;;1.62;58.72
76201;BME280;64981;52.930;9.266;2023-04-06T01:19:14;101643.41;;;1.56;58.59
76201;BME280;64981;52.930;9.266;2023-04-06T01:21:41;101646.50;;;1.47;59.96
76201;BME280;64981;52.930;9.266;2023-04-06T01:24:08;101655.31;;;1.44;60.25
76201;BME280;64981;52.930;9.266;2023-04-06T01:26:36;101646.34;;;1.50;60.12
76201;BME280;64981;52.930;9.266;2023-04-06T01:29:05;101647.09;;;1.52;59.84
76201;BME280;64981;52.930;9.266;2023-04-06T01:31:31;101646.06;;;1.54;59.87
76201;BME280;64981;52.930;9.266;2023-04-06T01:33:56;101652.75;;;1.60;59.49
76201;BME280;64981;52.930;9.266;2023-04-06T01:36:22;101644.41;;;1.53;59.67
76201;BME280;64981;52.930;9.266;2023-04-06T01:38:47;101653.63;;;1.43;59.88
76201;BME280;64981;52.930;9.266;2023-04-06T01:41:13;101650.88;;;1.46;59.63
76201;BME280;64981;52.930;9.266;2023-04-06T01:43:39;101647.97;;;1.35;59.81
76201;BME280;64981;52.930;9.266;2023-04-06T01:46:04;101642.28;;;1.29;60.31
76201;BME280;64981;52.930;9.266;2023-04-06T01:48:31;101642.66;;;1.21;60.79
76201;BME280;64981;52.930;9.266;2023-04-06T01:50:57;101642.47;;;1.08;60.75
76201;BME280;64981;52.930;9.266;2023-04-06T01:53:22;101648.75;;;1.37;59.80
76201;BME280;64981;52.930;9.266;2023-04-06T01:55:48;101640.00;;;1.38;59.83
76201;BME280;64981;52.930;9.266;2023-04-06T01:58:14;101643.19;;;1.28;60.50
76201;BME280;64981;52.930;9.266;2023-04-06T02:00:40;101640.47;;;1.13;60.94
76201;BME280;64981;52.930;9.266;2023-04-06T02:03:05;101639.47;;;1.16;61.01
76201;BME280;64981;52.930;9.266;2023-04-06T02:05:32;101632.63;;;1.31;61.26
76201;BME280;64981;52.930;9.266;2023-04-06T02:08:04;101641.81;;;1.20;61.48
76201;BME280;64981;52.930;9.266;2023-04-06T02:10:31;101625.53;;;1.17;61.38
76201;BME280;64981;52.930;9.266;2023-04-06T02:12:56;101629.88;;;1.16;61.14
76201;BME280;64981;52.930;9.266;2023-04-06T02:15:22;101627.09;;;1.04;61.57
76201;BME280;64981;52.930;9.266;2023-04-06T02:17:48;101633.13;;;1.04;61.60
76201;BME280;64981;52.930;9.266;2023-04-06T02:20:13;101636.84;;;1.00;61.85
76201;BME280;64981;52.930;9.266;2023-04-06T02:22:39;101628.09;;;1.01;61.25
76201;BME280;64981;52.930;9.266;2023-04-06T02:25:05;101629.19;;;0.97;61.97
76201;BME280;64981;52.930;9.266;2023-04-06T02:27:31;101629.19;;;0.97;62.52
76201;BME280;64981;52.930;9.266;2023-04-06T02:29:57;101626.44;;;1.00;61.20
76201;BME280;64981;52.930;9.266;2023-04-06T02:32:23;101619.41;;;1.18;60.54
76201;BME280;64981;52.930;9.266;2023-04-06T02:34:48;101615.91;;;1.19;59.49
76201;BME280;64981;52.930;9.266;2023-04-06T02:37:14;101615.25;;;1.31;59.41
76201;BME280;64981;52.930;9.266;2023-04-06T02:39:41;101607.66;;;1.27;59.70
76201;BME280;64981;52.930;9.266;2023-04-06T02:42:06;101612.69;;;1.14;60.56
76201;BME280;64981;52.930;9.266;2023-04-06T02:44:34;101614.06;;;1.04;61.18
76201;BME280;64981;52.930;9.266;2023-04-06T02:46:59;101611.50;;;1.19;60.79
76201;BME280;64981;52.930;9.266;2023-04-06T02:49:25;101592.47;;;1.19;60.71
76201;BME280;64981;52.930;9.266;2023-04-06T02:51:51;101599.47;;;1.34;60.77
76201;BME280;64981;52.930;9.266;2023-04-06T02:54:16;101601.56;;;1.28;60.39
76201;BME280;64981;52.930;9.266;2023-04-06T02:56:42;101602.38;;;1.12;60.85
76201;BME280;64981;52.930;9.266;2023-04-06T02:59:08;101603.25;;;0.96;60.70
76201;BME280;64981;52.930;9.266;2023-04-06T03:01:33;101592.72;;;1.14;60.05
76201;BME280;64981;52.930;9.266;2023-04-06T03:03:59;101596.34;;;1.28;59.75
76201;BME280;64981;52.930;9.266;2023-04-06T03:06:24;101592.31;;;1.22;60.18
76201;BME280;64981;52.930;9.266;2023-04-06T03:08:50;101596.84;;;1.18;60.80
76201;BME280;64981;52.930;9.266;2023-04-06T03:11:16;101593.31;;;1.19;61.08
76201;BME280;64981;52.930;9.266;2023-04-06T03:13:41;101593.09;;;1.07;61.44
76201;BME280;64981;52.930;9.266;2023-04-06T03:16:07;101585.06;;;1.11;61.40
76201;BME280;64981;52.930;9.266;2023-04-06T03:18:32;101595.72;;;1.07;61.46
76201;BME280;64981;52.930;9.266;2023-04-06T03:20:58;101589.28;;;1.14;61.35
76201;BME280;64981;52.930;9.266;2023-04-06T03:23:25;101588.72;;;0.92;61.33
76201;BME280;64981;52.930;9.266;2023-04-06T03:25:51;101599.16;;;1.07;60.94
76201;BME280;64981;52.930;9.266;2023-04-06T03:28:17;101593.09;;;1.07;60.94
76201;BME280;64981;52.930;9.266;2023-04-06T03:30:42;101598.72;;;0.99;61.06
76201;BME280;64981;52.930;9.266;2023-04-06T03:33:08;101600.22;;;0.88;61.88
76201;BME280;64981;52.930;9.266;2023-04-06T03:35:33;101593.00;;;0.93;62.20
76201;BME280;64981;52.930;9.266;2023-04-06T03:37:59;101598.03;;;0.96;61.64
76201;BME280;64981;52.930;9.266;2023-04-06T03:40:25;101601.72;;;0.92;61.35
76201;BME280;64981;52.930;9.266;2023-04-06T03:42:50;101600.00;;;1.08;60.21
76201;BME280;64981;52.930;9.266;2023-04-06T03:45:16;101596.34;;;0.95;60.30
76201;BME280;64981;52.930;9.266;2023-04-06T03:47:42;101595.00;;;0.88;60.26
76201;BME280;64981;52.930;9.266;2023-04-06T03:50:08;101601.34;;;0.82;59.16
76201;BME280;64981;52.930;9.266;2023-04-06T03:52:35;101591.88;;;0.81;60.44
76201;BME280;64981;52.930;9.266;2023-04-06T03:55:02;101597.63;;;0.88;59.89
76201;BME280;64981;52.930;9.266;2023-04-06T03:57:28;101590.81;;;1.01;58.84
76201;BME280;64981;52.930;9.266;2023-04-06T03:59:53;101590.97;;;1.15;58.73
76201;BME280;64981;52.930;9.266;2023-04-06T04:02:19;101605.66;;;1.16;58.92
76201;BME280;64981;52.930;9.266;2023-04-06T04:04:44;101605.81;;;1.13;59.26
76201;BME280;64981;52.930;9.266;2023-04-06T04:07:10;101602.47;;;1.27;58.54
76201;BME280;64981;52.930;9.266;2023-04-06T04:09:36;101601.59;;;1.10;58.83
76201;BME280;64981;52.930;9.266;2023-04-06T04:12:02;101596.00;;;1.18;58.88
76201;BME280;64981;52.930;9.266;2023-04-06T04:14:28;101602.13;;;1.33;57.96
76201;BME280;64981;52.930;9.266;2023-04-06T04:16:53;101606.44;;;1.34;57.72
76201;BME280;64981;52.930;9.266;2023-04-06T04:19:19;101614.38;;;1.15;58.56
76201;BME280;64981;52.930;9.266;2023-04-06T04:21:46;101620.38;;;1.00;59.43
76201;BME280;64981;52.930;9.266;2023-04-06T04:24:12;101612.41;;;1.03;58.85
76201;BME280;64981;52.930;9.266;2023-04-06T04:26:39;101609.00;;;0.85;59.42
76201;BME280;64981;52.930;9.266;2023-04-06T04:29:05;101610.84;;;0.83;59.81
76201;BME280;64981;52.930;9.266;2023-04-06T04:31:31;101605.09;;;0.94;59.21
76201;BME280;64981;52.930;9.266;2023-04-06T04:33:59;101603.38;;;1.10;59.02
76201;BME280;64981;52.930;9.266;2023-04-06T04:36:25;101599.28;;;0.89;60.09
76201;BME280;64981;52.930;9.266;2023-04-06T04:38:51;101593.91;;;0.92;59.87
76201;BME280;64981;52.930;9.266;2023-04-06T04:41:17;101597.78;;;0.85;60.17
76201;BME280;64981;52.930;9.266;2023-04-06T04:43:43;101599.22;;;0.73;60.26
76201;BME280;64981;52.930;9.266;2023-04-06T04:46:08;101600.69;;;0.79;60.29
76201;BME280;64981;52.930;9.266;2023-04-06T04:48:34;101601.19;;;0.85;59.64
76201;BME280;64981;52.930;9.266;2023-04-06T04:51:00;101602.97;;;0.85;60.22
76201;BME280;64981;52.930;9.266;2023-04-06T04:53:26;101596.88;;;1.01;59.33
76201;BME280;64981;52.930;9.266;2023-04-06T04:55:51;101596.13;;;0.99;59.54
76201;BME280;64981;52.930;9.266;2023-04-06T04:58:17;101595.09;;;1.19;59.11
76201;BME280;64981;52.930;9.266;2023-04-06T05:00:45;101594.88;;;1.06;59.12
76201;BME280;64981;52.930;9.266;2023-04-06T05:03:19;101605.47;;;1.03;59.61
76201;BME280;64981;52.930;9.266;2023-04-06T05:05:46;101599.09;;;1.09;59.06
76201;BME280;64981;52.930;9.266;2023-04-06T05:08:12;101593.88;;;1.09;59.34
76201;BME280;64981;52.930;9.266;2023-04-06T05:10:37;101588.94;;;1.20;58.91
76201;BME280;64981;52.930;9.266;2023-04-06T05:13:03;101594.81;;;1.24;58.94
76201;BME280;64981;52.930;9.266;2023-04-06T05:15:29;101601.41;;;1.46;58.49
76201;BME280;64981;52.930;9.266;2023-04-06T05:17:54;101596.03;;;1.34;58.55
76201;BME280;64981;52.930;9.266;2023-04-06T05:20:20;101599.31;;;1.53;58.11
76201;BME280;64981;52.930;9.266;2023-04-06T05:22:46;101590.50;;;1.71;57.44
76201;BME280;64981;52.930;9.266;2023-04-06T05:25:13;101590.16;;;1.77;58.06
76201;BME280;64981;52.930;9.266;2023-04-06T05:27:39;101590.72;;;1.82;58.07
76201;BME280;64981;52.930;9.266;2023-04-06T05:30:06;101589.75;;;1.85;57.17
76201;BME280;64981;52.930;9.266;2023-04-06T05:32:32;101593.19;;;1.85;57.60
76201;BME280;64981;52.930;9.266;2023-04-06T05:34:58;101588.91;;;1.84;57.81
76201;BME280;64981;52.930;9.266;2023-04-06T05:37:24;101595.25;;;2.10;56.80
76201;BME280;64981;52.930;9.266;2023-04-06T05:39:49;101590.25;;;2.51;56.14
76201;BME280;64981;52.930;9.266;2023-04-06T05:42:15;101594.28;;;2.70;54.75
76201;BME280;64981;52.930;9.266;2023-04-06T05:44:41;101588.41;;;2.53;55.81
76201;BME280;64981;52.930;9.266;2023-04-06T05:47:07;101592.72;;;2.82;54.92
76201;BME280;64981;52.930;9.266;2023-04-06T05:49:33;101583.88;;;2.85;54.28
76201;BME280;64981;52.930;9.266;2023-04-06T05:51:58;101591.50;;;3.30;54.17
76201;BME280;64981;52.930;9.266;2023-04-06T05:54:24;101584.50;;;3.45;53.01
76201;BME280;64981;52.930;9.266;2023-04-06T05:56:50;101585.69;;;3.94;52.69
76201;BME280;64981;52.930;9.266;2023-04-06T05:59:15;101582.25;;;3.79;52.38
76201;BME280;64981;52.930;9.266;2023-04-06T06:01:41;101582.19;;;4.20;51.42
76201;BME280;64981;52.930;9.266;2023-04-06T06:04:07;101582.63;;;4.27;50.66
76201;BME280;64981;52.930;9.266;2023-04-06T06:06:32;101587.72;;;4.42;50.39
76201;BME280;64981;52.930;9.266;2023-04-06T06:08:58;101587.50;;;4.46;50.57
76201;BME280;64981;52.930;9.266;2023-04-06T06:11:26;101581.56;;;4.56;50.40
76201;BME280;64981;52.930;9.266;2023-04-06T06:13:52;101582.63;;;4.54;50.73
76201;BME280;64981;52.930;9.266;2023-04-06T06:16:18;101573.94;;;4.66;50.20
76201;BME280;64981;52.930;9.266;2023-04-06T06:18:44;101573.53;;;4.84;49.65
76201;BME280;64981;52.930;9.266;2023-04-06T06:21:10;101571.97;;;4.82;49.62
76201;BME280;64981;52.930;9.266;2023-04-06T06:23:38;101573.59;;;5.08;49.53
76201;BME280;64981;52.930;9.266;2023-04-06T06:26:04;101576.63;;;5.27;48.51
76201;BME280;64981;52.930;9.266;2023-04-06T06:28:30;101573.84;;;5.54;47.52
76201;BME280;64981;52.930;9.266;2023-04-06T06:30:56;101569.81;;;5.37;47.93
76201;BME280;64981;52.930;9.266;2023-04-06T06:33:21;101572.16;;;5.53;47.13
76201;BME280;64981;52.930;9.266;2023-04-06T06:35:47;101581.56;;;5.92;46.62
76201;BME280;64981;52.930;9.266;2023-04-06T06:38:13;101570.75;;;5.73;45.94
76201;BME280;64981;52.930;9.266;2023-04-06T06:40:39;101561.41;;;6.62;45.77
76201;BME280;64981;52.930;9.266;2023-04-06T06:43:05;101569.84;;;7.34;44.06
76201;BME280;64981;52.930;9.266;2023-04-06T06:45:31;101572.72;;;7.20;43.49
76201;BME280;64981;52.930;9.266;2023-04-06T06:47:57;101571.47;;;7.46;44.28
76201;BME280;64981;52.930;9.266;2023-04-06T06:50:22;101569.97;;;7.32;43.75
76201;BME280;64981;52.930;9.266;2023-04-06T06:52:48;101565.78;;;7.41;43.49
76201;BME280;64981;52.930;9.266;2023-04-06T06:55:14;101566.06;;;7.70;43.17
76201;BME280;64981;52.930;9.266;2023-04-06T06:57:40;101570.63;;;7.56;43.41
76201;BME280;64981;52.930;9.266;2023-04-06T07:00:09;101570.19;;;7.51;43.38
76201;BME280;64981;52.930;9.266;2023-04-06T07:02:36;101565.88;;;7.50;42.41
76201;BME280;64981;52.930;9.266;2023-04-06T07:05:02;101571.69;;;8.08;42.66
76201;BME280;64981;52.930;9.266;2023-04-06T07:07:28;101565.38;;;7.99;42.84
76201;BME280;64981;52.930;9.266;2023-04-06T07:09:53;101573.97;;;8.54;41.89
76201;BME280;64981;52.930;9.266;2023-04-06T07:12:19;101569.09;;;8.49;42.15
76201;BME280;64981;52.930;9.266;2023-04-06T07:14:45;101568.56;;;8.14;42.59
76201;BME280;64981;52.930;9.266;2023-04-06T07:17:10;101562.41;;;8.25;42.45
76201;BME280;64981;52.930;9.266;2023-04-06T07:19:37;101552.66;;;8.36;41.75
76201;BME280;64981;52.930;9.266;2023-04-06T07:22:03;101561.69;;;8.43;41.77
76201;BME280;64981;52.930;9.266;2023-04-06T07:24:29;101562.16;;;8.28;41.54
76201;BME280;64981;52.930;9.266;2023-04-06T07:26:54;101561.34;;;8.48;41.79
76201;BME280;64981;52.930;9.266;2023-04-06T07:29:21;101553.19;;;8.51;41.10
76201;BME280;64981;52.930;9.266;2023-04-06T07:31:48;101557.06;;;8.15;41.71
76201;BME280;64981;52.930;9.266;2023-04-06T07:34:14;101555.03;;;8.39;41.38
76201;BME280;64981;52.930;9.266;2023-04-06T07:36:40;101554.72;;;8.33;41.01
76201;BME280;64981;52.930;9.266;2023-04-06T07:39:07;101561.00;;;8.62;41.06
76201;BME280;64981;52.930;9.266;2023-04-06T07:41:32;101553.78;;;9.05;41.14
76201;BME280;64981;52.930;9.266;2023-04-06T07:43:58;101562.06;;;9.01;40.38
76201;BME280;64981;52.930;9.266;2023-04-06T07:46:24;101553.78;;;9.05;39.95
76201;BME280;64981;52.930;9.266;2023-04-06T07:48:50;101552.94;;;9.05;40.10
76201;BME280;64981;52.930;9.266;2023-04-06T07:51:16;101542.50;;;9.34;40.16
76201;BME280;64981;52.930;9.266;2023-04-06T07:53:44;101537.00;;;9.06;39.98
76201;BME280;64981;52.930;9.266;2023-04-06T07:56:10;101544.19;;;9.44;39.39
76201;BME280;64981;52.930;9.266;2023-04-06T07:58:35;101550.91;;;8.88;40.03
76201;BME280;64981;52.930;9.266;2023-04-06T08:01:02;101552.88;;;8.12;41.43
76201;BME280;64981;52.930;9.266;2023-04-06T08:03:27;101548.97;;;8.80;41.57
76201;BME280;64981;52.930;9.266;2023-04-06T08:05:53;101547.84;;;8.83;41.07
76201;BME280;64981;52.930;9.266;2023-04-06T08:08:20;101544.56;;;9.20;40.03
76201;BME280;64981;52.930;9.266;2023-04-06T08:10:47;101550.56;;;9.42;39.52
76201;BME280;64981;52.930;9.266;2023-04-06T08:13:14;101544.34;;;9.43;39.38
76201;BME280;64981;52.930;9.266;2023-04-06T08:15:39;101557.31;;;9.84;39.01
76201;BME280;64981;52.930;9.266;2023-04-06T08:18:05;101552.59;;;10.07;38.47
76201;BME280;64981;52.930;9.266;2023-04-06T08:20:31;101541.47;;;9.65;38.72
76201;BME280;64981;52.930;9.266;2023-04-06T08:22:56;101540.88;;;10.76;38.04
76201;BME280;64981;52.930;9.266;2023-04-06T08:25:22;101543.25;;;11.07;37.07
76201;BME280;64981;52.930;9.266;2023-04-06T08:27:48;101540.94;;;10.94;37.32
76201;BME280;64981;52.930;9.266;2023-04-06T08:30:13;101534.81;;;10.38;37.58
76201;BME280;64981;52.930;9.266;2023-04-06T08:32:41;101545.06;;;11.06;37.51
76201;BME280;64981;52.930;9.266;2023-04-06T08:35:07;101542.81;;;11.38;37.06
76201;BME280;64981;52.930;9.266;2023-04-06T08:37:33;101538.16;;;10.96;37.78
76201;BME280;64981;52.930;9.266;2023-04-06T08:39:59;101536.88;;;10.44;38.33
76201;BME280;64981;52.930;9.266;2023-04-06T08:42:26;101544.72;;;10.82;38.22
76201;BME280;64981;52.930;9.266;2023-04-06T08:44:55;101532.63;;;11.16;37.02
76201;BME280;64981;52.930;9.266;2023-04-06T08:47:20;101533.41;;;11.26;37.99
76201;BME280;64981;52.930;9.266;2023-04-06T08:49:48;101534.63;;;10.68;38.15
76201;BME280;64981;52.930;9.266;2023-04-06T08:52:18;101532.41;;;11.00;37.81
76201;BME280;64981;52.930;9.266;2023-04-06T08:54:44;101530.97;;;11.43;36.83
76201;BME280;64981;52.930;9.266;2023-04-06T08:57:10;101524.00;;;11.42;36.84
76201;BME280;64981;52.930;9.266;2023-04-06T08:59:37;101515.53;;;11.83;36.26
76201;BME280;64981;52.930;9.266;2023-04-06T09:02:04;101518.94;;;11.93;35.85
76201;BME280;64981;52.930;9.266;2023-04-06T09:04:33;101508.72;;;12.41;36.92
76201;BME280;64981;52.930;9.266;2023-04-06T09:07:01;101524.00;;;12.04;35.62
76201;BME280;64981;52.930;9.266;2023-04-06T09:09:27;101517.13;;;12.11;36.35
76201;BME280;64981;52.930;9.266;2023-04-06T09:11:52;101507.97;;;12.75;35.55
76201;BME280;64981;52.930;9.266;2023-04-06T09:14:33;101520.38;;;12.74;34.38
76201;BME280;64981;52.930;9.266;2023-04-06T09:17:00;101505.38;;;12.83;34.39
76201;BME280;64981;52.930;9.266;2023-04-06T09:19:26;101510.56;;;13.01;33.94
76201;BME280;64981;52.930;9.266;2023-04-06T09:22:07;101503.00;;;12.80;34.39
76201;BME280;64981;52.930;9.266;2023-04-06T09:24:53;101512.09;;;12.77;34.05
76201;BME280;64981;52.930;9.266;2023-04-06T09:27:39;101512.38;;;13.34;33.20
76201;BME280;64981;52.930;9.266;2023-04-06T09:30:07;101508.50;;;13.86;33.08
76201;BME280;64981;52.930;9.266;2023-04-06T09:32:59;101501.66;;;13.76;32.66
76201;BME280;64981;52.930;9.266;2023-04-06T09:35:25;101499.56;;;14.20;32.20
76201;BME280;64981;52.930;9.266;2023-04-06T09:37:53;101500.44;;;13.38;33.46
76201;BME280;64981;52.930;9.266;2023-04-06T09:40:19;101497.88;;;14.43;32.63
76201;BME280;64981;52.930;9.266;2023-04-06T09:42:47;101492.34;;;14.61;31.58
76201;BME280;64981;52.930;9.266;2023-04-06T09:45:13;101492.53;;;15.14;32.04
76201;BME280;64981;52.930;9.266;2023-04-06T09:47:43;101495.69;;;14.54;30.92
76201;BME280;64981;52.930;9.266;2023-04-06T09:50:11;101481.13;;;14.97;31.04
76201;BME280;64981;52.930;9.266;2023-04-06T09:52:46;101478.78;;;15.64;30.44
76201;BME280;64981;52.930;9.266;2023-04-06T09:55:20;101485.09;;;15.86;30.60
76201;BME280;64981;52.930;9.266;2023-04-06T09:58:12;101479.31;;;15.59;30.22
76201;BME280;64981;52.930;9.266;2023-04-06T10:00:54;101481.09;;;15.90;29.82
76201;BME280;64981;52.930;9.266;2023-04-06T10:06:26;101489.66;;;14.85;31.21
76201;BME280;64981;52.930;9.266;2023-04-06T10:08:56;101489.59;;;14.93;31.04
76201;BME280;64981;52.930;9.266;2023-04-06T10:11:22;101482.72;;;14.68;31.19
76201;BME280;64981;52.930;9.266;2023-04-06T10:13:48;101479.91;;;15.70;31.03
76201;BME280;64981;52.930;9.266;2023-04-06T10:16:16;101484.25;;;15.40;31.43
76201;BME280;64981;52.930;9.266;2023-04-06T10:18:52;101485.47;;;14.82;31.51
76201;BME280;64981;52.930;9.266;2023-04-06T10:21:23;101474.59;;;15.16;31.62
76201;BME280;64981;52.930;9.266;2023-04-06T10:23:59;101485.47;;;14.90;31.54
76201;BME280;64981;52.930;9.266;2023-04-06T10:26:25;101473.69;;;15.24;31.38
76201;BME280;64981;52.930;9.266;2023-04-06T10:28:51;101484.75;;;15.43;31.57
76201;BME280;64981;52.930;9.266;2023-04-06T10:31:26;101472.41;;;15.42;31.30
76201;BME280;64981;52.930;9.266;2023-04-06T10:34:01;101483.75;;;16.12;29.68
76201;BME280;64981;52.930;9.266;2023-04-06T10:36:33;101489.06;;;16.50;29.42
76201;BME280;64981;52.930;9.266;2023-04-06T10:39:05;101481.22;;;16.48;28.54
76201;BME280;64981;52.930;9.266;2023-04-06T10:41:33;101468.66;;;16.72;28.97
76201;BME280;64981;52.930;9.266;2023-04-06T10:43:59;101476.78;;;16.26;28.80
76201;BME280;64981;52.930;9.266;2023-04-06T10:46:28;101469.75;;;16.48;28.87
76201;BME280;64981;52.930;9.266;2023-04-06T10:48:55;101478.22;;;16.81;28.18
76201;BME280;64981;52.930;9.266;2023-04-06T10:51:26;101458.88;;;16.64;27.96
76201;BME280;64981;52.930;9.266;2023-04-06T10:53:53;101467.09;;;16.10;28.56
76201;BME280;64981;52.930;9.266;2023-04-06T10:56:22;101479.63;;;16.10;28.65
76201;BME280;64981;52.930;9.266;2023-04-06T10:58:51;101469.34;;;15.76;29.22
76201;BME280;64981;52.930;9.266;2023-04-06T11:01:21;101464.81;;;15.62;29.65
76201;BME280;64981;52.930;9.266;2023-04-06T11:03:48;101459.19;;;15.57;29.17
76201;BME280;64981;52.930;9.266;2023-04-06T11:06:23;101462.50;;;14.97;30.03
76201;BME280;64981;52.930;9.266;2023-04-06T11:08:50;101461.66;;;15.05;30.08
76201;BME280;64981;52.930;9.266;2023-04-06T11:11:18;101458.44;;;14.71;30.96
76201;BME280;64981;52.930;9.266;2023-04-06T11:13:48;101448.09;;;15.23;31.34
76201;BME280;64981;52.930;9.266;2023-04-06T11:16:16;101456.03;;;14.92;30.40
76201;BME280;64981;52.930;9.266;2023-04-06T11:19:00;101442.56;;;14.85;30.93
76201;BME280;64981;52.930;9.266;2023-04-06T11:21:40;101442.22;;;14.96;30.83
76201;BME280;64981;52.930;9.266;2023-04-06T11:24:10;101453.41;;;14.84;30.75
76201;BME280;64981;52.930;9.266;2023-04-06T11:26:39;101449.59;;;15.17;30.92
76201;BME280;64981;52.930;9.266;2023-04-06T11:29:06;101440.41;;;14.89;30.35
76201;BME280;64981;52.930;9.266;2023-04-06T11:31:31;101440.41;;;14.50;31.02
76201;BME280;64981;52.930;9.266;2023-04-06T11:34:09;101431.75;;;14.56;31.31
76201;BME280;64981;52.930;9.266;2023-04-06T11:36:35;101425.75;;;14.93;30.92
76201;BME280;64981;52.930;9.266;2023-04-06T11:39:03;101436.09;;;15.27;29.96
76201;BME280;64981;52.930;9.266;2023-04-06T11:41:29;101434.41;;;15.56;29.72
76201;BME280;64981;52.930;9.266;2023-04-06T11:43:55;101427.38;;;15.02;30.19
76201;BME280;64981;52.930;9.266;2023-04-06T11:46:21;101430.63;;;15.20;30.02
76201;BME280;64981;52.930;9.266;2023-04-06T11:48:47;101426.34;;;15.64;29.51
76201;BME280;64981;52.930;9.266;2023-04-06T11:51:21;101419.06;;;15.13;29.58
76201;BME280;64981;52.930;9.266;2023-04-06T11:53:47;101430.69;;;15.12;29.65
76201;BME280;64981;52.930;9.266;2023-04-06T11:56:29;101427.22;;;15.03;29.54
76201;BME280;64981;52.930;9.266;2023-04-06T11:58:57;101429.28;;;15.24;29.64
76201;BME280;64981;52.930;9.266;2023-04-06T12:01:23;101423.03;;;15.40;29.23
76201;BME280;64981;52.930;9.266;2023-04-06T12:03:50;101401.22;;;15.14;29.90
76201;BME280;64981;52.930;9.266;2023-04-06T12:06:17;101410.59;;;15.32;29.72
76201;BME280;64981;52.930;9.266;2023-04-06T12:08:42;101406.53;;;15.22;29.71
76201;BME280;64981;52.930;9.266;2023-04-06T12:11:08;101400.94;;;15.08;29.64
76201;BME280;64981;52.930;9.266;2023-04-06T12:13:34;101411.63;;;15.54;29.75
76201;BME280;64981;52.930;9.266;2023-04-06T12:16:00;101397.53;;;15.68;29.71
76201;BME280;64981;52.930;9.266;2023-04-06T12:18:25;101402.69;;;16.07;28.44
76201;BME280;64981;52.930;9.266;2023-04-06T12:20:51;101392.78;;;15.78;28.35
76201;BME280;64981;52.930;9.266;2023-04-06T12:23:19;101399.66;;;15.73;28.43
76201;BME280;64981;52.930;9.266;2023-04-06T12:25:44;101395.31;;;15.72;28.93
76201;BME280;64981;52.930;9.266;2023-04-06T12:28:10;101390.78;;;15.95;29.00
76201;BME280;64981;52.930;9.266;2023-04-06T12:30:36;101394.63;;;15.55;26.81
76201;BME280;64981;52.930;9.266;2023-04-06T12:33:02;101387.22;;;16.02;25.98
76201;BME280;64981;52.930;9.266;2023-04-06T12:35:28;101388.13;;;16.32;26.22
76201;BME280;64981;52.930;9.266;2023-04-06T12:37:53;101382.75;;;16.17;24.88
76201;BME280;64981;52.930;9.266;2023-04-06T12:40:20;101382.63;;;16.84;25.73
76201;BME280;64981;52.930;9.266;2023-04-06T12:42:46;101400.94;;;16.87;26.49
76201;BME280;64981;52.930;9.266;2023-04-06T12:45:12;101373.56;;;16.49;26.04
76201;BME280;64981;52.930;9.266;2023-04-06T12:47:38;101376.72;;;17.25;26.21
76201;BME280;64981;52.930;9.266;2023-04-06T12:50:05;101377.72;;;17.02;26.31
76201;BME280;64981;52.930;9.266;2023-04-06T12:52:31;101376.66;;;16.67;25.16
76201;BME280;64981;52.930;9.266;2023-04-06T12:55:01;101375.91;;;17.24;24.28
76201;BME280;64981;52.930;9.266;2023-04-06T12:57:27;101377.69;;;17.59;24.51
76201;BME280;64981;52.930;9.266;2023-04-06T12:59:52;101384.81;;;17.31;24.46